Time;durP1;ratioP1;P1;durP2;ratioP2;P2;SDS_P1;SDS_P2;PMS_P1;PMS_P2;Temp;Humidity;BMP_temperature;BMP_pressure;BME280_temperature;BME280_humidity;BME280_pressure;Samples;Min_cycle;Max_cycle;Signal;HPM_P1;HPM_P2
2024/01/13 00:02:02;;;;;;;71.78;32.83;;;;;;;-1.52;88.62;100023.41;5053170;28;20041;-69
2024/01/13 00:04:27;;;;;;;82.30;36.25;;;;;;;-1.64;89.24;100020.66;5060634;28;20036;-69
2024/01/13 00:06:53;;;;;;;81.55;35.58;;;;;;;-1.85;88.71;100026.53;5071291;28;20028;-69
2024/01/13 00:09:18;;;;;;;86.13;36.05;;;;;;;-1.68;89.30;100024.97;5071333;28;20409;-69
2024/01/13 00:11:44;;;;;;;77.05;35.33;;;;;;;-1.80;89.39;100022.25;5071052;28;20060;-70
2024/01/13 00:14:09;;;;;;;89.97;38.08;;;;;;;-1.71;89.85;100029.03;5053224;28;20025;-69
2024/01/13 00:17:04;;;;;;;91.97;38.67;;;;;;;-1.83;90.25;100016.16;5070990;28;20033;-70
2024/01/13 00:19:29;;;;;;;83.47;35.40;;;;;;;-1.83;89.86;100021.63;5036328;28;20033;-69
2024/01/13 00:21:55;;;;;;;79.35;36.50;;;;;;;-1.92;89.94;100027.72;5053790;28;20035;-69
2024/01/13 00:24:20;;;;;;;82.85;35.83;;;;;;;-1.95;90.65;100026.28;5056222;28;20020;-71
2024/01/13 00:26:46;;;;;;;81.43;35.85;;;;;;;-1.80;90.31;100034.06;5075106;28;20031;-71
2024/01/13 00:29:11;;;;;;;78.68;34.10;;;;;;;-1.81;89.91;100032.38;5075115;28;20028;-71
2024/01/13 00:31:37;;;;;;;91.78;36.47;;;;;;;-1.85;90.67;100031.19;5074768;28;20024;-71
2024/01/13 00:34:03;;;;;;;81.97;33.25;;;;;;;-1.76;91.16;100031.66;5074949;28;20024;-71
2024/01/13 00:36:28;;;;;;;79.22;34.42;;;;;;;-1.65;90.54;100030.81;5064671;28;20029;-71
2024/01/13 00:38:54;;;;;;;72.60;32.90;;;;;;;-1.67;91.11;100035.72;5073694;28;20055;-71
2024/01/13 00:41:19;;;;;;;66.82;31.08;;;;;;;-1.70;90.51;100027.94;5044920;28;20033;-71
2024/01/13 00:43:45;;;;;;;72.32;31.67;;;;;;;-1.82;91.26;100036.19;5054686;28;20497;-71
2024/01/13 00:46:10;;;;;;;71.72;32.63;;;;;;;-1.75;91.22;100038.81;5058574;28;20471;-71
2024/01/13 00:48:36;;;;;;;66.97;30.77;;;;;;;-1.71;91.05;100024.38;5055790;28;20063;-71
2024/01/13 00:51:02;;;;;;;64.18;31.05;;;;;;;-1.90;90.82;100033.81;5044967;28;20033;-70
2024/01/13 00:53:27;;;;;;;67.95;32.10;;;;;;;-1.95;89.50;100028.22;5067933;28;20032;-70
2024/01/13 00:55:53;;;;;;;66.40;31.80;;;;;;;-1.96;88.73;100027.38;5072587;28;20039;-70
2024/01/13 00:58:18;;;;;;;70.78;32.50;;;;;;;-1.85;89.01;100032.03;5073548;28;20556;-70
2024/01/13 01:00:44;;;;;;;69.43;33.00;;;;;;;-1.84;88.44;100028.19;5074297;28;20051;-71
2024/01/13 01:03:09;;;;;;;69.70;29.90;;;;;;;-1.82;88.88;100036.19;5055135;28;20051;-71
2024/01/13 01:05:35;;;;;;;66.15;28.00;;;;;;;-1.80;87.77;100027.75;5073558;28;20106;-71
2024/01/13 01:08:00;;;;;;;58.13;28.95;;;;;;;-1.81;87.50;100023.31;5073194;28;20028;-71
2024/01/13 01:10:26;;;;;;;57.40;28.95;;;;;;;-1.86;87.76;100027.63;5054437;28;20040;-71
2024/01/13 01:12:51;;;;;;;59.65;27.75;;;;;;;-1.91;88.59;100033.00;5055358;28;20040;-70
2024/01/13 01:15:16;;;;;;;61.03;28.65;;;;;;;-1.86;88.16;100029.53;5072779;28;20119;-70
2024/01/13 01:17:42;;;;;;;62.55;28.38;;;;;;;-1.84;86.83;100025.47;5073074;28;20032;-71
2024/01/13 01:20:08;;;;;;;57.75;26.00;;;;;;;-1.78;86.11;100017.38;5039803;28;20064;-70
2024/01/13 01:22:33;;;;;;;58.13;27.45;;;;;;;-1.72;87.13;100027.38;5064681;28;20386;-70
2024/01/13 01:24:59;;;;;;;53.33;24.20;;;;;;;-1.70;86.55;100023.31;5053032;28;20031;-70
2024/01/13 01:27:24;;;;;;;73.40;30.52;;;;;;;-1.64;86.51;100021.53;5071123;28;20107;-71
2024/01/13 01:29:50;;;;;;;63.38;29.52;;;;;;;-1.60;86.47;100017.22;5073208;28;20036;-70
2024/01/13 01:32:15;;;;;;;66.72;29.05;;;;;;;-1.60;86.36;100008.97;5049433;28;20028;-71
2024/01/13 01:34:41;;;;;;;59.10;29.08;;;;;;;-1.46;85.79;100015.06;5061087;28;20028;-70
2024/01/13 01:37:06;;;;;;;60.17;27.75;;;;;;;-1.61;84.16;100001.81;5058134;28;20028;-70
2024/01/13 01:39:31;;;;;;;57.22;26.58;;;;;;;-1.60;84.07;100000.75;5072519;28;20036;-70
2024/01/13 01:41:57;;;;;;;55.85;25.42;;;;;;;-1.71;83.32;100010.69;5070052;28;20028;-71
2024/01/13 01:44:22;;;;;;;48.38;24.67;;;;;;;-1.79;84.19;100001.97;5055487;28;20036;-70
2024/01/13 01:46:49;;;;;;;47.90;23.40;;;;;;;-1.73;84.14;100001.00;5054322;28;20029;-70
2024/01/13 01:49:17;;;;;;;49.70;23.10;;;;;;;-1.73;83.06;99995.53;5067070;28;20024;-70
2024/01/13 01:51:44;;;;;;;52.22;24.10;;;;;;;-1.71;83.22;99996.09;5072485;28;20021;-70
2024/01/13 01:54:09;;;;;;;51.38;24.63;;;;;;;-1.73;83.35;100001.00;5054070;28;20024;-70
2024/01/13 01:56:36;;;;;;;52.75;25.10;;;;;;;-1.68;82.66;99992.91;5072346;28;20527;-70
2024/01/13 01:59:03;;;;;;;51.10;25.25;;;;;;;-1.84;81.76;99999.97;5045409;28;20492;-70
2024/01/13 02:01:32;;;;;;;50.10;22.83;;;;;;;-1.82;81.74;100000.53;5072200;28;20024;-70
2024/01/13 02:04:00;;;;;;;47.03;21.98;;;;;;;-1.87;82.53;100001.25;5072760;28;20040;-70
2024/01/13 02:06:26;;;;;;;50.85;23.63;;;;;;;-1.87;81.27;99998.53;5040767;28;20521;-70
2024/01/13 02:08:52;;;;;;;45.88;22.23;;;;;;;-1.78;81.13;100006.41;5055101;28;20059;-70
2024/01/13 02:11:19;;;;;;;50.45;22.55;;;;;;;-1.80;80.64;100005.81;5062003;28;20053;-70
2024/01/13 02:13:46;;;;;;;47.17;20.77;;;;;;;-1.83;80.80;100004.38;5054493;28;20025;-70
2024/01/13 02:16:12;;;;;;;44.35;22.50;;;;;;;-1.78;79.68;100011.88;5065823;28;20064;-70
2024/01/13 02:18:38;;;;;;;47.55;20.85;;;;;;;-1.80;79.83;100009.38;5054155;28;20035;-71
2024/01/13 02:21:04;;;;;;;44.60;20.95;;;;;;;-1.66;80.08;100006.38;5050184;28;20082;-70
2024/01/13 02:23:29;;;;;;;56.35;24.30;;;;;;;-1.83;78.77;100005.19;5054963;28;20052;-70
2024/01/13 02:25:55;;;;;;;45.17;21.17;;;;;;;-1.98;79.57;100011.16;5065721;28;20025;-70
2024/01/13 02:28:21;;;;;;;46.35;22.50;;;;;;;-2.04;79.69;99992.91;5044896;28;20029;-70
2024/01/13 02:30:46;;;;;;;47.03;21.05;;;;;;;-1.98;79.43;99991.97;5057542;28;20020;-70
2024/01/13 02:33:12;;;;;;;48.78;21.52;;;;;;;-1.97;79.97;99995.53;5071838;28;20243;-70
2024/01/13 02:35:37;;;;;;;53.33;23.50;;;;;;;-1.98;78.91;99985.66;5070228;28;20036;-70
2024/01/13 02:38:03;;;;;;;52.15;23.27;;;;;;;-2.10;79.14;99979.31;5053821;28;20024;-71
2024/01/13 02:40:28;;;;;;;50.15;21.45;;;;;;;-2.00;79.83;99979.56;5070311;28;20039;-70
2024/01/13 02:42:54;;;;;;;44.78;21.77;;;;;;;-2.06;80.01;99977.78;5053483;28;20090;-70
2024/01/13 02:45:19;;;;;;;53.67;22.75;;;;;;;-2.22;80.98;99976.59;5042034;28;20021;-69
2024/01/13 02:47:53;;;;;;;47.97;21.20;;;;;;;-2.06;80.79;99984.09;5035884;28;20025;-69
2024/01/13 02:50:18;;;;;;;39.38;19.83;;;;;;;-1.94;80.72;99977.78;5054482;28;20024;-69
2024/01/13 02:52:46;;;;;;;46.95;20.75;;;;;;;-1.99;80.84;99965.63;5052654;28;20052;-69
2024/01/13 02:55:12;;;;;;;42.83;20.08;;;;;;;-2.03;80.76;99969.09;5070902;28;20045;-69
2024/01/13 02:57:38;;;;;;;48.67;20.85;;;;;;;-2.05;81.07;99966.56;5071885;28;20037;-69
2024/01/13 03:00:05;;;;;;;46.30;22.08;;;;;;;-2.14;81.06;99965.25;5058052;28;20046;-69
2024/01/13 03:02:31;;;;;;;40.92;20.17;;;;;;;-2.00;80.91;99965.84;5071652;28;20489;-69
2024/01/13 03:04:56;;;;;;;43.53;20.27;;;;;;;-2.05;80.69;99965.72;5070138;28;20025;-69
2024/01/13 03:07:22;;;;;;;49.75;20.67;;;;;;;-1.99;80.43;99981.25;5054059;28;20036;-69
2024/01/13 03:09:47;;;;;;;45.83;21.80;;;;;;;-1.99;79.64;99973.00;5053386;28;20471;-69
2024/01/13 03:12:13;;;;;;;46.47;20.02;;;;;;;-1.94;78.86;99981.34;5049714;28;20061;-69
2024/01/13 03:14:38;;;;;;;46.97;22.15;;;;;;;-2.13;78.72;99978.75;5053391;28;20117;-69
2024/01/13 03:17:04;;;;;;;50.15;23.58;;;;;;;-2.13;78.73;99984.22;5052928;28;20040;-69
2024/01/13 03:19:29;;;;;;;53.15;23.58;;;;;;;-2.03;77.88;99993.75;5071088;28;20043;-69
2024/01/13 03:21:55;;;;;;;42.42;20.63;;;;;;;-2.12;78.71;99993.25;5047609;28;20048;-69
2024/01/13 03:24:20;;;;;;;46.03;21.52;;;;;;;-2.00;78.98;99990.53;5071743;28;20117;-69
2024/01/13 03:26:46;;;;;;;46.28;21.48;;;;;;;-1.88;78.12;99996.84;5070568;28;20035;-69
2024/01/13 03:29:11;;;;;;;48.35;22.85;;;;;;;-1.91;77.21;100002.81;5070987;28;20036;-69
2024/01/13 03:31:37;;;;;;;49.20;21.95;;;;;;;-1.93;77.18;100004.97;5052348;28;20029;-69
2024/01/13 03:34:02;;;;;;;48.88;23.60;;;;;;;-1.93;77.32;100013.19;5070837;28;20032;-69
2024/01/13 03:36:27;;;;;;;43.35;20.75;;;;;;;-1.86;77.25;100016.63;5065846;28;20103;-69
2024/01/13 03:38:53;;;;;;;44.78;20.55;;;;;;;-1.88;76.81;100016.06;5048503;28;20035;-69
2024/01/13 03:41:22;;;;;;;45.00;22.15;;;;;;;-1.76;76.09;100018.78;5048038;28;20032;-69
2024/01/13 03:43:49;;;;;;;49.35;22.90;;;;;;;-1.72;75.18;100024.63;5056284;28;20464;-69
2024/01/13 03:46:15;;;;;;;62.92;26.42;;;;;;;-1.70;75.34;100027.94;5070704;28;20525;-69
2024/01/13 03:48:41;;;;;;;51.10;21.70;;;;;;;-1.67;74.73;100030.25;5053352;28;20106;-69
2024/01/13 03:51:08;;;;;;;45.75;19.33;;;;;;;-1.66;75.22;100031.91;5070128;28;20028;-69
2024/01/13 03:53:36;;;;;;;51.70;21.35;;;;;;;-1.61;74.48;100029.25;5066008;28;20111;-69
2024/01/13 03:56:04;;;;;;;40.67;19.50;;;;;;;-1.56;74.61;100018.41;5043851;28;20068;-70
2024/01/13 03:58:29;;;;;;;46.67;20.27;;;;;;;-1.47;73.85;100023.50;5054003;28;20052;-70
2024/01/13 04:00:55;;;;;;;42.75;20.00;;;;;;;-1.44;74.65;100025.78;5071229;28;20079;-70
2024/01/13 04:03:21;;;;;;;48.67;21.55;;;;;;;-1.51;74.37;100025.06;5069415;28;20040;-70
2024/01/13 04:05:47;;;;;;;40.38;18.83;;;;;;;-1.66;74.89;100026.41;5065665;28;20079;-70
2024/01/13 04:08:12;;;;;;;48.17;22.73;;;;;;;-1.56;74.67;100018.41;5064530;28;20402;-70
2024/01/13 04:10:37;;;;;;;51.30;24.15;;;;;;;-2.01;75.06;100024.50;5070215;28;20448;-70
2024/01/13 04:13:03;;;;;;;45.92;21.77;;;;;;;-1.99;76.41;100027.84;5051392;28;20420;-70
2024/01/13 04:15:28;;;;;;;47.30;22.35;;;;;;;-2.26;76.31;100017.34;5070768;28;20047;-70
2024/01/13 04:17:54;;;;;;;44.50;19.48;;;;;;;-2.23;77.13;100016.88;5069920;28;20032;-70
2024/01/13 04:20:20;;;;;;;46.88;23.38;;;;;;;-2.21;77.28;100014.72;5071180;28;20032;-70
2024/01/13 04:22:46;;;;;;;45.83;21.27;;;;;;;-1.90;77.47;100020.94;5069946;28;20531;-70
2024/01/13 04:25:11;;;;;;;44.28;20.38;;;;;;;-1.72;77.77;100009.00;5070767;28;20156;-70
2024/01/13 04:27:37;;;;;;;41.95;19.30;;;;;;;-1.73;76.52;100007.34;5059214;28;20024;-70
2024/01/13 04:30:06;;;;;;;43.47;19.85;;;;;;;-1.58;75.72;100009.56;5046178;28;20028;-70
2024/01/13 04:32:31;;;;;;;43.53;21.77;;;;;;;-1.53;74.27;100008.03;5069186;28;20508;-70
2024/01/13 04:34:57;;;;;;;41.47;18.90;;;;;;;-1.63;73.89;100006.72;5070081;28;20032;-70
2024/01/13 04:37:22;;;;;;;39.42;17.92;;;;;;;-1.68;73.35;100022.25;5047822;28;20028;-70
2024/01/13 04:39:48;;;;;;;40.80;18.83;;;;;;;-1.64;73.53;100009.69;5053918;28;20028;-70
2024/01/13 04:42:13;;;;;;;54.08;21.83;;;;;;;-1.82;74.44;100008.78;5052904;28;20032;-70
2024/01/13 04:44:39;;;;;;;56.33;25.65;;;;;;;-1.80;74.50;100014.03;5070599;28;20024;-70
2024/01/13 04:47:04;;;;;;;56.83;25.90;;;;;;;-1.67;73.81;100013.78;5038302;28;20025;-70
2024/01/13 04:49:30;;;;;;;57.90;24.13;;;;;;;-1.76;74.02;100012.47;5052700;28;20120;-70
2024/01/13 04:51:55;;;;;;;59.17;24.30;;;;;;;-1.79;73.94;100016.50;5069873;28;20102;-70
2024/01/13 04:54:21;;;;;;;56.65;26.27;;;;;;;-1.73;74.18;100022.94;5069758;28;20032;-70
2024/01/13 04:56:46;;;;;;;58.35;25.55;;;;;;;-1.74;73.69;100016.66;5044174;28;20482;-70
2024/01/13 04:59:12;;;;;;;60.38;26.00;;;;;;;-1.83;72.46;100026.31;5061029;28;20524;-70
2024/01/13 05:01:37;;;;;;;52.67;24.48;;;;;;;-1.87;72.95;100023.19;5069674;28;20032;-70
2024/01/13 05:04:03;;;;;;;49.58;22.98;;;;;;;-2.07;73.63;100017.22;5068287;28;20505;-68
2024/01/13 05:06:28;;;;;;;54.30;21.05;;;;;;;-2.10;74.44;100017.72;5069715;28;20482;-68
2024/01/13 05:08:54;;;;;;;47.55;22.45;;;;;;;-2.09;76.14;100022.13;5070711;28;20036;-68
2024/01/13 05:11:19;;;;;;;44.97;22.58;;;;;;;-2.10;76.13;100028.69;5073431;28;20052;-68
2024/01/13 05:13:45;;;;;;;51.60;22.90;;;;;;;-2.06;75.98;100024.38;5054394;28;20031;-68
2024/01/13 05:16:10;;;;;;;51.70;22.77;;;;;;;-2.15;76.32;100022.00;5073094;28;20028;-68
2024/01/13 05:18:36;;;;;;;55.03;25.33;;;;;;;-2.23;77.23;100019.59;5056412;28;20036;-68
2024/01/13 05:21:01;;;;;;;59.20;26.42;;;;;;;-2.30;77.61;100010.66;5073209;28;20036;-68
2024/01/13 05:23:27;;;;;;;63.95;27.02;;;;;;;-2.37;77.53;100018.16;5054817;28;20111;-69
2024/01/13 05:25:52;;;;;;;70.10;28.40;;;;;;;-2.70;78.76;100009.41;5051902;28;20029;-68
2024/01/13 05:28:18;;;;;;;67.22;31.00;;;;;;;-2.86;78.99;100017.19;5055906;28;20024;-68
2024/01/13 05:30:43;;;;;;;57.22;26.45;;;;;;;-2.77;79.68;100025.06;5056036;28;20044;-68
2024/01/13 05:33:09;;;;;;;61.22;27.52;;;;;;;-2.79;79.75;100019.81;5059685;28;20090;-68
2024/01/13 05:35:34;;;;;;;64.18;28.63;;;;;;;-2.78;80.01;100023.41;5055380;28;20035;-68
2024/01/13 05:37:59;;;;;;;59.45;27.73;;;;;;;-2.66;79.54;100017.97;5054834;28;20032;-68
2024/01/13 05:40:25;;;;;;;60.00;27.27;;;;;;;-2.83;79.28;100021.38;5069840;28;20467;-69
2024/01/13 05:42:51;;;;;;;60.33;27.15;;;;;;;-2.92;79.54;100014.53;5056354;28;20040;-68
2024/01/13 05:45:16;;;;;;;64.93;26.85;;;;;;;-2.88;78.40;100019.31;5072862;28;20066;-68
2024/01/13 05:47:42;;;;;;;63.33;28.25;;;;;;;-2.87;79.18;100031.13;5051721;28;20031;-68
2024/01/13 05:50:09;;;;;;;64.88;29.85;;;;;;;-2.98;79.60;100019.88;5073477;28;20386;-68
2024/01/13 05:52:36;;;;;;;65.32;32.00;;;;;;;-2.99;79.43;100020.97;5055413;28;20031;-68
2024/01/13 05:55:03;;;;;;;62.22;27.80;;;;;;;-2.93;79.17;100010.13;5072639;28;20020;-69
2024/01/13 05:57:29;;;;;;;59.83;23.90;;;;;;;-2.68;78.09;100008.06;5054090;28;20575;-68
2024/01/13 05:59:54;;;;;;;52.33;23.10;;;;;;;-2.62;76.92;100005.47;5054061;28;20124;-69
2024/01/13 06:02:20;;;;;;;48.80;21.80;;;;;;;-2.64;75.41;100010.38;5054799;28;20512;-68
2024/01/13 06:04:47;;;;;;;42.03;19.40;;;;;;;-2.59;74.72;100002.28;5059594;28;20035;-68
2024/01/13 06:07:14;;;;;;;45.58;19.02;;;;;;;-2.49;73.91;100001.69;5054688;28;20032;-68
2024/01/13 06:09:40;;;;;;;46.05;20.20;;;;;;;-2.35;73.34;100005.91;5072455;28;20094;-68
2024/01/13 06:12:07;;;;;;;45.47;20.58;;;;;;;-2.37;72.16;99999.78;5070890;28;20048;-68
2024/01/13 06:14:32;;;;;;;44.65;20.90;;;;;;;-2.38;71.89;99997.31;5070853;28;20106;-69
2024/01/13 06:16:58;;;;;;;43.50;20.75;;;;;;;-2.34;71.50;100006.72;5049203;28;20032;-68
2024/01/13 06:19:23;;;;;;;54.00;23.02;;;;;;;-2.45;70.67;99989.19;5071231;28;20463;-68
2024/01/13 06:21:49;;;;;;;51.30;24.08;;;;;;;-2.44;69.95;99990.88;5048826;28;20025;-68
2024/01/13 06:24:14;;;;;;;42.92;18.83;;;;;;;-2.45;69.81;99997.41;5057300;28;20036;-69
2024/01/13 06:26:43;;;;;;;42.20;19.45;;;;;;;-2.45;69.38;99990.03;5056653;28;20501;-69
2024/01/13 06:29:10;;;;;;;49.50;21.63;;;;;;;-2.38;69.57;100005.53;5072344;28;20050;-69
2024/01/13 06:31:35;;;;;;;55.45;21.73;;;;;;;-2.28;67.77;99986.59;5054581;28;20082;-69
2024/01/13 06:34:02;;;;;;;57.40;23.80;;;;;;;-2.21;68.54;99992.78;5072096;28;20452;-69
2024/01/13 06:36:28;;;;;;;55.97;22.55;;;;;;;-2.23;67.90;99989.47;5057152;28;20490;-68
2024/01/13 06:38:54;;;;;;;51.38;23.30;;;;;;;-2.35;68.95;99988.59;5069423;28;20111;-68
2024/01/13 06:41:20;;;;;;;52.08;23.80;;;;;;;-2.40;70.37;99995.66;5072341;28;20032;-69
2024/01/13 06:43:45;;;;;;;62.03;25.65;;;;;;;-2.22;70.37;99998.53;5054516;28;20443;-69
2024/01/13 06:46:11;;;;;;;54.67;24.52;;;;;;;-2.21;70.35;99994.72;5072060;28;20021;-69
2024/01/13 06:48:37;;;;;;;52.33;22.70;;;;;;;-2.42;70.26;99977.75;5054347;28;20113;-69
2024/01/13 06:51:02;;;;;;;56.67;24.42;;;;;;;-2.31;71.33;99996.13;5068672;28;20035;-69
2024/01/13 06:53:28;;;;;;;67.15;28.95;;;;;;;-2.39;70.90;99990.97;5058480;28;20455;-69
2024/01/13 06:55:53;;;;;;;60.95;27.45;;;;;;;-2.20;71.18;99999.13;5047708;28;20444;-69
2024/01/13 06:58:19;;;;;;;49.30;23.27;;;;;;;-2.25;71.19;99999.81;5052035;28;20528;-69
2024/01/13 07:00:44;;;;;;;60.83;25.02;;;;;;;-2.29;70.80;100013.16;5051837;28;20032;-69
2024/01/13 07:03:10;;;;;;;57.72;24.85;;;;;;;-2.06;69.91;99999.69;5048728;28;20028;-69
2024/01/13 07:05:35;;;;;;;51.85;23.40;;;;;;;-2.18;70.31;100003.28;5053381;28;20027;-69
2024/01/13 07:08:00;;;;;;;56.42;23.92;;;;;;;-2.06;69.92;100007.94;5051619;28;20043;-69
2024/01/13 07:10:29;;;;;;;47.85;22.30;;;;;;;-2.16;70.36;100009.38;5070418;28;20040;-69
2024/01/13 07:12:55;;;;;;;52.95;22.98;;;;;;;-2.00;70.01;100009.72;5071135;28;20089;-69
2024/01/13 07:15:20;;;;;;;45.00;22.42;;;;;;;-2.15;69.38;100011.03;5062786;28;20100;-68
2024/01/13 07:17:46;;;;;;;43.55;21.77;;;;;;;-1.95;69.66;100011.75;5071811;28;20089;-68
2024/01/13 07:20:12;;;;;;;49.78;22.75;;;;;;;-1.93;69.43;100013.19;5053763;28;20067;-68
2024/01/13 07:22:37;;;;;;;54.72;23.73;;;;;;;-1.78;68.75;100014.63;5038390;28;20033;-67
2024/01/13 07:25:03;;;;;;;45.75;23.25;;;;;;;-1.63;68.46;100016.84;5040893;28;20054;-68
2024/01/13 07:27:29;;;;;;;55.40;24.17;;;;;;;-1.76;67.79;100024.25;5067520;28;20031;-68
2024/01/13 07:29:55;;;;;;;56.95;25.38;;;;;;;-1.62;67.12;100018.53;5062209;28;20492;-68
2024/01/13 07:32:20;;;;;;;51.38;21.60;;;;;;;-1.70;67.26;100030.69;5048446;28;20033;-68
2024/01/13 07:34:46;;;;;;;56.65;23.38;;;;;;;-1.51;67.07;100027.81;5030924;28;20032;-68
2024/01/13 07:37:11;;;;;;;45.83;20.90;;;;;;;-1.56;68.03;100023.91;5034514;28;20033;-68
2024/01/13 07:39:37;;;;;;;43.97;21.73;;;;;;;-1.42;67.44;100023.63;5049070;28;20036;-69
2024/01/13 07:42:03;;;;;;;41.30;20.42;;;;;;;-1.37;67.21;100018.25;5049080;28;20029;-69
2024/01/13 07:44:28;;;;;;;42.42;21.88;;;;;;;-1.36;66.13;100016.34;5080013;28;20089;-70
2024/01/13 07:46:58;;;;;;;43.80;21.08;;;;;;;-1.48;67.13;100021.84;5086943;28;20016;-68
2024/01/13 07:49:25;;;;;;;40.70;19.55;;;;;;;-1.37;65.86;100025.66;5086461;28;20020;-69
2024/01/13 07:51:53;;;;;;;44.40;19.33;;;;;;;-1.26;66.42;100022.06;5051974;28;20142;-69
2024/01/13 07:54:19;;;;;;;39.88;20.58;;;;;;;-1.18;65.58;100021.66;5065095;28;20025;-68
2024/01/13 07:56:44;;;;;;;38.88;19.52;;;;;;;-1.39;64.74;100017.66;5066629;28;20035;-68
2024/01/13 07:59:10;;;;;;;48.25;20.55;;;;;;;-1.33;65.44;100024.94;5051055;28;20511;-69
2024/01/13 08:01:35;;;;;;;39.75;20.55;;;;;;;-1.31;65.44;100009.06;5065781;28;20061;-66
2024/01/13 08:04:00;;;;;;;42.95;21.83;;;;;;;-1.10;65.33;100020.44;5067847;28;20519;-69
2024/01/13 08:06:26;;;;;;;43.95;19.05;;;;;;;-1.12;62.74;100014.34;5066847;28;20523;-69
2024/01/13 08:08:52;;;;;;;40.65;20.10;;;;;;;-0.91;64.80;100021.06;5049734;28;20024;-68
2024/01/13 08:11:17;;;;;;;41.53;20.27;;;;;;;-0.98;62.90;100020.41;5035664;28;20049;-68
2024/01/13 08:13:42;;;;;;;44.00;20.50;;;;;;;-0.86;64.37;100014.84;5049710;28;20509;-70
2024/01/13 08:16:09;;;;;;;41.25;19.92;;;;;;;-0.83;63.66;100025.38;5061611;28;20373;-70
2024/01/13 08:18:34;;;;;;;42.25;20.08;;;;;;;-0.88;63.08;100022.50;5054734;28;20028;-70
2024/01/13 08:21:00;;;;;;;44.78;18.85;;;;;;;-0.95;61.56;100021.84;5056171;28;20039;-70
2024/01/13 08:23:25;;;;;;;36.28;19.05;;;;;;;-0.95;62.79;100019.09;5048755;28;20036;-68
2024/01/13 08:25:51;;;;;;;44.47;20.33;;;;;;;-0.76;63.52;100026.03;5031914;28;20029;-69
2024/01/13 08:28:17;;;;;;;41.30;20.60;;;;;;;-0.68;62.54;100021.25;5066335;28;20028;-68
2024/01/13 08:30:43;;;;;;;31.00;17.55;;;;;;;-0.64;61.06;100019.66;5055163;28;20024;-68
2024/01/13 08:33:08;;;;;;;41.72;20.02;;;;;;;-0.70;60.85;100018.72;5065428;28;20566;-68
2024/01/13 08:35:34;;;;;;;51.75;23.30;;;;;;;-0.63;62.33;100018.56;5078954;28;20020;-65
2024/01/13 08:38:00;;;;;;;52.45;22.38;;;;;;;-0.58;62.91;100014.00;5076072;28;20500;-66
2024/01/13 08:40:25;;;;;;;41.83;19.30;;;;;;;-0.46;63.37;100013.09;5050558;28;20017;-67
2024/01/13 08:42:51;;;;;;;40.90;19.40;;;;;;;-0.39;62.64;100007.44;5061305;28;20488;-64
2024/01/13 08:45:19;;;;;;;41.92;20.83;;;;;;;-0.36;61.02;100012.44;5060176;28;20036;-67
2024/01/13 08:47:45;;;;;;;43.45;22.52;;;;;;;-0.50;60.95;100001.75;5076849;28;20020;-65
2024/01/13 08:50:10;;;;;;;40.60;17.30;;;;;;;-0.30;60.67;100014.19;5081463;28;20026;-65
2024/01/13 08:52:36;;;;;;;38.17;17.92;;;;;;;-0.15;60.36;100003.44;5074631;28;20626;-67
2024/01/13 08:55:01;;;;;;;37.97;17.67;;;;;;;-0.14;60.42;100009.78;5078358;28;20032;-69
2024/01/13 08:57:26;;;;;;;36.97;16.90;;;;;;;-0.15;60.22;99992.44;5072654;28;20028;-67
2024/01/13 08:59:52;;;;;;;45.42;19.27;;;;;;;-0.19;60.70;100010.53;5072173;28;20524;-68
2024/01/13 09:02:18;;;;;;;34.22;18.45;;;;;;;-0.15;61.17;100006.19;5076468;28;20031;-67
2024/01/13 09:04:44;;;;;;;36.92;17.92;;;;;;;-0.08;60.37;99995.03;5072735;28;20036;-68
2024/01/13 09:07:09;;;;;;;36.08;18.50;;;;;;;-0.01;60.57;99986.59;5080894;28;20405;-68
2024/01/13 09:09:35;;;;;;;39.85;18.33;;;;;;;-0.10;58.91;99980.69;5058346;28;20086;-68
2024/01/13 09:12:00;;;;;;;43.88;21.23;;;;;;;0.05;60.65;99980.09;5085791;28;20071;-68
2024/01/13 09:14:26;;;;;;;36.97;17.55;;;;;;;0.07;60.09;99977.91;5071695;28;20020;-68
2024/01/13 09:16:51;;;;;;;45.38;20.40;;;;;;;-0.01;59.72;99972.84;5066921;28;20031;-68
2024/01/13 09:19:16;;;;;;;29.95;17.10;;;;;;;-0.08;59.52;99969.44;5061205;28;20062;-67
2024/01/13 09:21:42;;;;;;;37.08;18.70;;;;;;;0.12;59.20;99960.66;5065124;28;20044;-68
2024/01/13 09:24:07;;;;;;;42.25;18.25;;;;;;;0.08;59.09;99967.75;5040530;28;20085;-67
2024/01/13 09:26:33;;;;;;;39.97;18.27;;;;;;;0.15;58.68;99951.88;5069549;28;20405;-67
2024/01/13 09:28:58;;;;;;;38.10;18.25;;;;;;;0.22;58.16;99946.19;5035831;28;20025;-67
2024/01/13 09:31:24;;;;;;;34.92;16.45;;;;;;;0.21;56.52;99939.88;5071989;28;20031;-67
2024/01/13 09:33:49;;;;;;;44.13;18.70;;;;;;;0.20;56.95;99942.88;5056557;28;20489;-67
2024/01/13 09:36:15;;;;;;;39.35;17.73;;;;;;;0.27;57.65;99938.03;5072551;28;20055;-68
2024/01/13 09:38:40;;;;;;;36.55;16.63;;;;;;;0.49;57.75;99920.69;5053491;28;20098;-67
2024/01/13 09:41:06;;;;;;;31.75;14.77;;;;;;;0.54;56.92;99932.59;5053303;28;20040;-67
2024/01/13 09:44:01;;;;;;;30.77;16.02;;;;;;;0.41;55.87;99921.94;5071971;28;20507;-68
2024/01/13 09:46:27;;;;;;;33.50;16.30;;;;;;;0.45;57.11;99900.25;5050489;28;20035;-68
2024/01/13 09:48:55;;;;;;;35.28;17.58;;;;;;;0.61;57.44;99898.53;5071510;28;20029;-68
2024/01/13 09:51:22;;;;;;;35.22;17.33;;;;;;;0.60;55.64;99902.38;5047883;28;20515;-67
2024/01/13 09:53:54;;;;;;;34.88;17.20;;;;;;;0.74;56.63;99900.88;5063627;28;20523;-67
2024/01/13 09:56:28;;;;;;;40.22;17.85;;;;;;;0.75;56.05;99894.25;5068332;28;20496;-66
2024/01/13 09:58:54;;;;;;;30.13;16.70;;;;;;;0.64;56.68;99898.00;5043639;28;20056;-66
2024/01/13 10:01:19;;;;;;;30.38;16.23;;;;;;;0.62;55.70;99889.16;5067534;28;20087;-66
2024/01/13 10:03:45;;;;;;;38.63;16.77;;;;;;;0.55;57.25;99886.63;5050177;28;20075;-66
2024/01/13 10:06:12;;;;;;;35.75;16.83;;;;;;;0.77;56.35;99885.75;5055857;28;20059;-67
2024/01/13 10:08:37;;;;;;;37.88;18.80;;;;;;;0.67;56.65;99886.50;5049170;28;20114;-67
2024/01/13 10:11:03;;;;;;;37.22;16.98;;;;;;;0.61;56.18;99866.31;5062512;28;20140;-67
2024/01/13 10:13:29;;;;;;;36.85;18.42;;;;;;;0.80;56.28;99868.69;5061566;28;20485;-67
2024/01/13 10:15:55;;;;;;;31.83;16.60;;;;;;;0.80;55.74;99871.47;5069643;28;20056;-66
2024/01/13 10:18:23;;;;;;;33.33;16.20;;;;;;;0.88;55.73;99865.50;5071616;28;20060;-67
2024/01/13 10:20:49;;;;;;;38.47;16.98;;;;;;;0.88;55.36;99856.38;5054058;28;20102;-67
2024/01/13 10:23:15;;;;;;;31.75;17.63;;;;;;;0.52;54.92;99857.66;5051936;28;20035;-66
2024/01/13 10:25:40;;;;;;;33.55;17.15;;;;;;;0.60;55.26;99864.63;5069712;28;20025;-67
2024/01/13 10:28:06;;;;;;;30.13;15.77;;;;;;;0.78;56.00;99855.19;5045262;28;20488;-67
2024/01/13 10:30:31;;;;;;;38.67;19.20;;;;;;;0.88;55.99;99854.47;5053754;28;20072;-67
2024/01/13 10:33:00;;;;;;;34.90;16.75;;;;;;;0.92;55.84;99855.59;5052251;28;20413;-67
2024/01/13 10:35:28;;;;;;;36.08;18.23;;;;;;;0.61;53.92;99863.56;5070781;28;20032;-66
2024/01/13 10:37:58;;;;;;;29.23;14.82;;;;;;;0.56;53.99;99852.50;5054582;28;20068;-66
2024/01/13 10:40:27;;;;;;;32.70;18.43;;;;;;;0.54;54.82;99850.00;5068854;28;20035;-67
2024/01/13 10:42:57;;;;;;;33.83;17.37;;;;;;;0.76;54.11;99840.03;5068469;28;20066;-67
2024/01/13 10:45:24;;;;;;;41.25;19.00;;;;;;;0.92;55.70;99835.50;5065823;28;20434;-67
2024/01/13 10:47:55;;;;;;;35.97;16.58;;;;;;;0.95;55.53;99838.53;5053643;28;20067;-67
2024/01/13 10:50:21;;;;;;;32.53;16.77;;;;;;;0.98;55.04;99829.78;5052002;28;20036;-67
2024/01/13 10:53:05;;;;;;;37.53;18.23;;;;;;;1.07;56.99;99830.13;5070948;28;20032;-67
2024/01/13 10:55:31;;;;;;;32.58;16.30;;;;;;;1.01;54.21;99835.84;5065496;28;20024;-69
2024/01/13 10:57:59;;;;;;;33.10;17.70;;;;;;;1.02;55.12;99832.00;5050264;28;20122;-69
2024/01/13 11:00:25;;;;;;;38.13;17.02;;;;;;;0.88;55.24;99831.59;5050774;28;20029;-69
2024/01/13 11:02:52;;;;;;;33.53;17.63;;;;;;;1.13;55.22;99825.47;5070904;28;20524;-69
2024/01/13 11:05:22;;;;;;;39.00;18.70;;;;;;;1.27;55.94;99834.13;5051835;28;20042;-69
2024/01/13 11:07:48;;;;;;;47.17;19.80;;;;;;;1.28;54.49;99816.50;5041826;28;20063;-69
2024/01/13 11:10:20;;;;;;;32.85;18.23;;;;;;;1.36;54.65;99810.47;5067467;28;20054;-69